Terminal Aerodrome Forecast
Issued by NWS

Home | Current Version | Previous Version | Text Only | Print | Product List | Glossary On
Versions: 1 2 3 4 5 6 7 8 9 10 11
000
FTUS45 KTFX 122329
TAFBZN
TAF
KBZN 122329Z 1300/1406 VRB05KT P6SM SCT080 BKN140
     FM131000 VRB05KT P6SM VCSH SCT050 OVC090
     FM131500 VRB03KT P6SM VCSH SCT030 OVC050 PROB30 1317/1323 4SM
      -SN BR BKN025
     FM140100 VRB03KT P6SM VCFG SCT015 OVC025=

USA.gov is the U.S. government's official web portal to all federal, state and local government web resources and services.